Time;durP1;ratioP1;P1;durP2;ratioP2;P2;SDS_P1;SDS_P2;PMS_P1;PMS_P2;Temp;Humidity;BMP_temperature;BMP_pressure;BME280_temperature;BME280_humidity;BME280_pressure;Samples;Min_cycle;Max_cycle;Signal;HPM_P1;HPM_P2
2023/05/02 00:00:27;;;;;;;;;;;;;;;10.69;100.00;102043.97;5126924;28;19914;-73
2023/05/02 00:02:58;;;;;;;;;;;;;;;10.71;100.00;102053.59;5123444;28;20005;-73
2023/05/02 00:05:29;;;;;;;;;;;;;;;10.74;100.00;102053.28;5123117;28;19919;-73
2023/05/02 00:08:00;;;;;;;;;;;;;;;10.74;100.00;102052.44;5121917;28;19919;-73
2023/05/02 00:10:30;;;;;;;;;;;;;;;10.74;100.00;102057.81;5121120;28;19915;-73
2023/05/02 00:13:00;;;;;;;;;;;;;;;10.77;100.00;102069.13;5122880;28;19997;-73
2023/05/02 00:15:31;;;;;;;;;;;;;;;10.87;100.00;102061.09;5122757;28;19914;-73
2023/05/02 00:18:01;;;;;;;;;;;;;;;10.96;100.00;102073.69;5140533;28;19922;-74
2023/05/02 00:20:32;;;;;;;;;;;;;;;10.98;100.00;102065.50;5142240;28;19914;-74
2023/05/02 00:23:02;;;;;;;;;;;;;;;11.03;100.00;102072.13;5142419;28;19965;-74
2023/05/02 00:25:32;;;;;;;;;;;;;;;11.05;100.00;102067.50;5142299;28;20294;-74
2023/05/02 00:28:03;;;;;;;;;;;;;;;11.05;100.00;102082.75;5141254;28;20294;-73
2023/05/02 00:30:33;;;;;;;;;;;;;;;11.09;100.00;102082.34;5156737;28;19984;-73
2023/05/02 00:33:05;;;;;;;;;;;;;;;11.15;100.00;102075.56;5129152;28;19914;-73
2023/05/02 00:35:36;;;;;;;;;;;;;;;11.09;100.00;102078.78;5141529;28;19972;-73
2023/05/02 00:38:06;;;;;;;;;;;;;;;11.04;100.00;102079.19;5141025;28;20343;-73
2023/05/02 00:40:55;;;;;;;;;;;;;;;11.06;100.00;102073.72;5141995;28;20395;-73
2023/05/02 00:43:29;;;;;;;;;;;;;;;11.08;100.00;102085.16;5134516;28;19925;-73
2023/05/02 00:45:59;;;;;;;;;;;;;;;11.10;100.00;102073.28;5122156;28;19981;-73
2023/05/02 00:48:29;;;;;;;;;;;;;;;11.07;100.00;102080.78;5130428;28;19914;-73
2023/05/02 00:51:01;;;;;;;;;;;;;;;11.04;100.00;102086.41;5137928;28;19921;-73
2023/05/02 00:53:32;;;;;;;;;;;;;;;11.08;100.00;102079.78;5122284;28;19922;-73
2023/05/02 00:56:02;;;;;;;;;;;;;;;11.07;100.00;102086.16;5122089;28;19915;-73
2023/05/02 00:58:33;;;;;;;;;;;;;;;11.09;100.00;102094.91;5120080;28;19922;-73
2023/05/02 01:01:20;;;;;;;;;;;;;;;11.06;100.00;102090.66;5121671;28;19925;-73
2023/05/02 01:03:51;;;;;;;;;;;;;;;11.09;100.00;102093.09;5122435;28;19918;-73
2023/05/02 01:06:40;;;;;;;;;;;;;;;11.10;100.00;102096.63;5121501;28;19918;-73
2023/05/02 01:09:29;;;;;;;;;;;;;;;11.09;100.00;102093.09;5123541;28;19925;-73
2023/05/02 01:12:02;;;;;;;;;;;;;;;11.05;100.00;102083.59;5126230;28;20271;-73
2023/05/02 01:14:34;;;;;;;;;;;;;;;11.01;100.00;102097.44;5125330;28;19922;-73
2023/05/02 01:17:07;;;;;;;;;;;;;;;10.91;100.00;102094.75;5136073;28;19921;-73
2023/05/02 01:19:50;;;;;;;;;;;;;;;10.85;100.00;102095.31;5137694;28;20292;-73
2023/05/02 01:22:22;;;;;;;;;;;;;;;10.81;100.00;102097.41;5137458;28;19920;-73
2023/05/02 01:24:53;;;;;;;;;;;;;;;10.80;100.00;102095.72;5124964;28;19938;-73
2023/05/02 01:27:29;;;;;;;;;;;;;;;10.80;100.00;102093.03;5124746;28;20379;-74
2023/05/02 01:30:13;;;;;;;;;;;;;;;10.74;100.00;102106.13;5125634;28;20860;-73
2023/05/02 01:32:45;;;;;;;;;;;;;;;10.75;100.00;102110.53;5139045;28;20367;-73
2023/05/02 01:35:15;;;;;;;;;;;;;;;10.74;100.00;102111.50;5126111;28;19920;-73
2023/05/02 01:37:47;;;;;;;;;;;;;;;10.71;100.00;102117.16;5124489;28;19914;-73
2023/05/02 01:40:19;;;;;;;;;;;;;;;10.72;100.00;102118.84;5127767;28;19922;-74
2023/05/02 01:42:50;;;;;;;;;;;;;;;10.67;100.00;102105.84;5125502;28;19926;-74
2023/05/02 01:45:21;;;;;;;;;;;;;;;10.63;100.00;102104.41;5125798;28;19921;-73
2023/05/02 01:47:53;;;;;;;;;;;;;;;10.61;100.00;102111.75;5124731;28;20303;-73
2023/05/02 01:50:24;;;;;;;;;;;;;;;10.61;100.00;102114.44;5125519;28;19915;-74
2023/05/02 01:52:57;;;;;;;;;;;;;;;10.57;100.00;102110.31;5124998;28;20005;-73
2023/05/02 01:55:27;;;;;;;;;;;;;;;10.54;100.00;102111.44;5125540;28;20383;-73
2023/05/02 01:57:59;;;;;;;;;;;;;;;10.47;100.00;102110.28;5131017;28;19921;-73
2023/05/02 02:00:31;;;;;;;;;;;;;;;10.42;100.00;102111.66;5145466;28;19918;-73
2023/05/02 02:03:08;;;;;;;;;;;;;;;10.27;100.00;102103.13;5145614;28;19922;-73
2023/05/02 02:05:39;;;;;;;;;;;;;;;10.14;100.00;102106.00;5142747;28;19969;-73
2023/05/02 02:08:09;;;;;;;;;;;;;;;10.07;100.00;102119.06;5143929;28;19972;-73
2023/05/02 02:10:42;;;;;;;;;;;;;;;10.01;100.00;102119.59;5144970;28;19914;-73
2023/05/02 02:13:28;;;;;;;;;;;;;;;9.99;100.00;102121.56;5132866;28;19915;-73
2023/05/02 02:16:00;;;;;;;;;;;;;;;10.00;100.00;102131.31;5127207;28;19915;-73
2023/05/02 02:18:34;;;;;;;;;;;;;;;9.95;100.00;102125.50;5141134;28;19914;-73
2023/05/02 02:21:06;;;;;;;;;;;;;;;9.86;100.00;102129.81;5136152;28;19914;-73
2023/05/02 02:23:38;;;;;;;;;;;;;;;9.78;100.00;102134.94;5144715;28;20351;-73
2023/05/02 02:26:09;;;;;;;;;;;;;;;9.73;100.00;102126.44;5143732;28;20318;-73
2023/05/02 02:28:41;;;;;;;;;;;;;;;9.63;100.00;102130.88;5130273;28;19989;-73
2023/05/02 02:31:12;;;;;;;;;;;;;;;9.52;100.00;102134.47;5143151;28;19914;-73
2023/05/02 02:33:43;;;;;;;;;;;;;;;9.45;100.00;102145.84;5144897;28;19921;-73
2023/05/02 02:36:19;;;;;;;;;;;;;;;9.42;100.00;102151.44;5142169;28;22028;-73
2023/05/02 02:39:01;;;;;;;;;;;;;;;9.46;100.00;102160.94;5134458;28;19941;-73
2023/05/02 02:41:49;;;;;;;;;;;;;;;9.54;100.00;102159.31;5137878;28;19918;-73
2023/05/02 02:44:24;;;;;;;;;;;;;;;9.58;100.00;102158.06;5127814;28;20295;-73
2023/05/02 02:46:55;;;;;;;;;;;;;;;9.62;100.00;102155.13;5132888;28;19914;-73
2023/05/02 02:49:29;;;;;;;;;;;;;;;9.66;100.00;102157.44;5141925;28;19921;-73
2023/05/02 02:52:04;;;;;;;;;;;;;;;9.63;100.00;102154.16;5142996;28;20008;-73
2023/05/02 02:54:39;;;;;;;;;;;;;;;9.58;100.00;102160.75;5144800;28;19929;-73
2023/05/02 02:57:09;;;;;;;;;;;;;;;9.50;100.00;102163.22;5142933;28;19918;-73
2023/05/02 02:59:45;;;;;;;;;;;;;;;9.50;100.00;102165.06;5134898;28;19911;-73
2023/05/02 03:02:17;;;;;;;;;;;;;;;9.54;100.00;102169.19;5143687;28;20049;-74
2023/05/02 03:04:50;;;;;;;;;;;;;;;9.59;100.00;102172.34;5144893;28;19964;-73
2023/05/02 03:07:20;;;;;;;;;;;;;;;9.58;100.00;102184.84;5142525;28;19922;-74
2023/05/02 03:09:51;;;;;;;;;;;;;;;9.62;100.00;102181.94;5144223;28;19914;-74
2023/05/02 03:12:21;;;;;;;;;;;;;;;9.62;100.00;102180.09;5142565;28;20009;-74
2023/05/02 03:14:52;;;;;;;;;;;;;;;9.75;100.00;102182.63;5143923;28;19914;-74
2023/05/02 03:17:22;;;;;;;;;;;;;;;9.76;100.00;102178.97;5142840;28;19921;-74
2023/05/02 03:19:52;;;;;;;;;;;;;;;9.75;100.00;102194.19;5143591;28;20410;-74
2023/05/02 03:22:23;;;;;;;;;;;;;;;9.80;100.00;102186.63;5134957;28;19922;-74
2023/05/02 03:24:53;;;;;;;;;;;;;;;9.89;100.00;102185.00;5123300;28;19918;-74
2023/05/02 03:27:23;;;;;;;;;;;;;;;9.97;100.00;102181.66;5122553;28;19914;-74
2023/05/02 03:29:54;;;;;;;;;;;;;;;9.96;100.00;102186.16;5122003;28;19915;-74
2023/05/02 03:32:25;;;;;;;;;;;;;;;10.01;100.00;102193.81;5123379;28;19922;-74
2023/05/02 03:34:57;;;;;;;;;;;;;;;9.97;100.00;102187.00;5123473;28;19914;-74
2023/05/02 03:37:27;;;;;;;;;;;;;;;9.85;100.00;102171.00;5133810;28;19914;-74
2023/05/02 03:39:58;;;;;;;;;;;;;;;9.78;100.00;102177.84;5140113;28;19945;-74
2023/05/02 03:42:28;;;;;;;;;;;;;;;9.80;100.00;102191.97;5142939;28;19918;-74
2023/05/02 03:44:58;;;;;;;;;;;;;;;9.77;100.00;102186.84;5123583;28;19921;-74
2023/05/02 03:47:29;;;;;;;;;;;;;;;9.63;100.00;102186.31;5122124;28;20359;-74
2023/05/02 03:49:59;;;;;;;;;;;;;;;9.57;100.00;102193.88;5131885;28;19922;-73
2023/05/02 03:52:30;;;;;;;;;;;;;;;9.50;100.00;102200.72;5128657;28;19914;-74
2023/05/02 03:55:00;;;;;;;;;;;;;;;9.48;100.00;102202.66;5122971;28;19919;-74
2023/05/02 03:57:31;;;;;;;;;;;;;;;9.42;100.00;102199.66;5121675;28;19918;-74
2023/05/02 04:00:01;;;;;;;;;;;;;;;9.36;100.00;102205.53;5122595;28;20013;-74
2023/05/02 04:02:32;;;;;;;;;;;;;;;9.23;100.00;102209.19;5123287;28;19925;-74
2023/05/02 04:05:02;;;;;;;;;;;;;;;9.15;100.00;102206.28;5123200;28;20013;-74
2023/05/02 04:07:33;;;;;;;;;;;;;;;9.06;100.00;102201.66;5122069;28;19941;-74
2023/05/02 04:10:04;;;;;;;;;;;;;;;8.98;100.00;102204.09;5122690;28;19961;-73
2023/05/02 04:12:35;;;;;;;;;;;;;;;8.91;100.00;102213.59;5130634;28;19918;-73
2023/05/02 04:15:05;;;;;;;;;;;;;;;8.85;100.00;102214.09;5143091;28;19945;-73
2023/05/02 04:17:36;;;;;;;;;;;;;;;8.82;100.00;102218.69;5141673;28;19915;-73
2023/05/02 04:20:07;;;;;;;;;;;;;;;8.86;100.00;102218.47;5142485;28;20024;-74
2023/05/02 04:25:23;;;;;;;;;;;;;;;8.94;100.00;102227.59;5141851;28;20383;-74
2023/05/02 04:27:53;;;;;;;;;;;;;;;8.97;100.00;102235.38;5141518;28;19921;-74
2023/05/02 04:30:24;;;;;;;;;;;;;;;8.98;100.00;102242.41;5142392;28;20005;-74
2023/05/02 04:32:54;;;;;;;;;;;;;;;8.98;100.00;102242.41;5129849;28;19922;-74
2023/05/02 04:35:25;;;;;;;;;;;;;;;8.97;100.00;102256.78;5142526;28;19918;-74
2023/05/02 04:37:55;;;;;;;;;;;;;;;8.96;100.00;102260.44;5138319;28;20006;-74
2023/05/02 04:40:26;;;;;;;;;;;;;;;8.97;100.00;102262.13;5124090;28;19914;-74
2023/05/02 04:42:56;;;;;;;;;;;;;;;9.00;100.00;102271.75;5122540;28;19923;-74
2023/05/02 04:45:26;;;;;;;;;;;;;;;9.08;100.00;102278.19;5122508;28;20360;-74
2023/05/02 04:47:57;;;;;;;;;;;;;;;9.17;100.00;102286.47;5121288;28;19914;-74
2023/05/02 04:50:28;;;;;;;;;;;;;;;9.23;100.00;102284.16;5122074;28;20327;-74
2023/05/02 04:52:58;;;;;;;;;;;;;;;9.32;100.00;102288.78;5141073;28;19915;-74
2023/05/02 04:55:29;;;;;;;;;;;;;;;9.40;100.00;102292.69;5141659;28;19965;-74
2023/05/02 04:57:59;;;;;;;;;;;;;;;9.48;100.00;102292.91;5132110;28;19914;-74
2023/05/02 05:00:29;;;;;;;;;;;;;;;9.56;100.00;102296.66;5121543;28;19950;-74
2023/05/02 05:03:00;;;;;;;;;;;;;;;9.70;100.00;102298.22;5122467;28;20403;-74
2023/05/02 05:05:30;;;;;;;;;;;;;;;9.74;100.00;102304.16;5122266;28;19914;-74
2023/05/02 05:08:01;;;;;;;;;;;;;;;9.91;100.00;102300.97;5121333;28;20009;-74
2023/05/02 05:10:31;;;;;;;;;;;;;;;10.01;100.00;102303.75;5137954;28;19914;-74
2023/05/02 05:13:03;;;;;;;;;;;;;;;10.05;100.00;102307.88;5130532;28;19915;-73
2023/05/02 05:15:33;;;;;;;;;;;;;;;10.08;100.00;102311.16;5122189;28;20299;-74
2023/05/02 05:18:03;;;;;;;;;;;;;;;10.10;100.00;102317.25;5139828;28;19918;-74
2023/05/02 05:20:34;;;;;;;;;;;;;;;10.09;100.00;102310.19;5140799;28;19914;-74
2023/05/02 05:23:04;;;;;;;;;;;;;;;10.11;100.00;102312.72;5128065;28;19990;-74
2023/05/02 05:25:35;;;;;;;;;;;;;;;10.12;100.00;102309.06;5121173;28;19921;-74
2023/05/02 05:28:05;;;;;;;;;;;;;;;10.14;100.00;102315.19;5121047;28;19921;-74
2023/05/02 05:30:36;;;;;;;;;;;;;;;10.17;100.00;102319.41;5122034;28;19922;-74
2023/05/02 05:33:06;;;;;;;;;;;;;;;10.24;100.00;102313.47;5122031;28;19961;-74
2023/05/02 05:35:36;;;;;;;;;;;;;;;10.37;100.00;102314.09;5122129;28;19914;-74
2023/05/02 05:38:07;;;;;;;;;;;;;;;10.48;100.00;102323.94;5120545;28;20008;-74
2023/05/02 05:40:37;;;;;;;;;;;;;;;10.54;100.00;102322.56;5123845;28;19914;-74
2023/05/02 05:43:07;;;;;;;;;;;;;;;10.54;100.00;102338.66;5121214;28;20299;-74
2023/05/02 05:45:38;;;;;;;;;;;;;;;10.48;100.00;102339.19;5122000;28;20307;-74
2023/05/02 05:48:08;;;;;;;;;;;;;;;10.53;100.00;102340.50;5121094;28;20374;-74
2023/05/02 05:50:39;;;;;;;;;;;;;;;10.50;100.00;102356.88;5121418;28;19930;-74
2023/05/02 05:53:09;;;;;;;;;;;;;;;10.49;100.00;102365.91;5141086;28;19918;-74
2023/05/02 05:55:40;;;;;;;;;;;;;;;10.52;100.00;102362.09;5127512;28;19935;-74
2023/05/02 05:58:11;;;;;;;;;;;;;;;10.52;100.00;102362.94;5124461;28;19981;-74
2023/05/02 06:00:41;;;;;;;;;;;;;;;10.52;100.00;102367.47;5142629;28;19961;-74
2023/05/02 06:03:12;;;;;;;;;;;;;;;10.49;100.00;102371.28;5145160;28;20427;-74
2023/05/02 06:05:42;;;;;;;;;;;;;;;10.49;100.00;102381.13;5145399;28;19914;-74
2023/05/02 06:08:13;;;;;;;;;;;;;;;10.49;100.00;102383.81;5129450;28;20112;-74
2023/05/02 06:10:44;;;;;;;;;;;;;;;10.47;100.00;102391.16;5141694;28;20393;-74
2023/05/02 06:13:14;;;;;;;;;;;;;;;10.44;100.00;102394.97;5143452;28;19914;-74
2023/05/02 06:15:45;;;;;;;;;;;;;;;10.41;100.00;102402.41;5134001;28;19919;-74
2023/05/02 06:18:15;;;;;;;;;;;;;;;10.36;100.00;102397.41;5141321;28;20265;-74
2023/05/02 06:20:46;;;;;;;;;;;;;;;10.31;100.00;102411.19;5141507;28;20375;-74
2023/05/02 06:23:16;;;;;;;;;;;;;;;10.38;100.00;102415.06;5142295;28;20010;-74
2023/05/02 06:25:46;;;;;;;;;;;;;;;10.49;100.00;102414.22;5134347;28;19949;-74
2023/05/02 06:28:17;;;;;;;;;;;;;;;10.62;100.00;102414.03;5140564;28;19925;-74
2023/05/02 06:30:55;;;;;;;;;;;;;;;10.74;100.00;102412.97;5144469;28;19914;-74
2023/05/02 06:33:26;;;;;;;;;;;;;;;10.90;100.00;102415.25;5144800;28;19914;-74
2023/05/02 06:35:56;;;;;;;;;;;;;;;10.99;100.00;102416.25;5144396;28;19914;-74
2023/05/02 06:38:26;;;;;;;;;;;;;;;11.13;100.00;102422.16;5142195;28;19921;-74
2023/05/02 06:40:57;;;;;;;;;;;;;;;11.23;100.00;102424.06;5144003;28;19914;-74
2023/05/02 06:43:27;;;;;;;;;;;;;;;11.28;100.00;102429.88;5136028;28;19919;-74
2023/05/02 06:45:58;;;;;;;;;;;;;;;11.33;100.00;102435.72;5124654;28;20053;-74
2023/05/02 06:48:28;;;;;;;;;;;;;;;11.55;100.00;102432.88;5133757;28;19918;-74
2023/05/02 06:50:59;;;;;;;;;;;;;;;11.68;100.00;102429.94;5141192;28;19914;-74
2023/05/02 06:53:30;;;;;;;;;;;;;;;11.92;100.00;102443.97;5144162;28;20379;-75
2023/05/02 06:56:00;;;;;;;;;;;;;;;12.01;100.00;102442.28;5144019;28;19922;-74
2023/05/02 06:58:31;;;;;;;;;;;;;;;12.31;100.00;102435.16;5143603;28;19941;-74
2023/05/02 07:01:01;;;;;;;;;;;;;;;13.10;100.00;102438.56;5124357;28;19925;-74
2023/05/02 07:03:31;;;;;;;;;;;;;;;13.83;100.00;102441.50;5137247;28;19926;-74
2023/05/02 07:06:02;;;;;;;;;;;;;;;15.14;100.00;102440.16;5143645;28;19914;-74
2023/05/02 07:08:32;;;;;;;;;;;;;;;15.60;100.00;102446.19;5128901;28;19915;-74
2023/05/02 07:11:03;;;;;;;;;;;;;;;15.64;100.00;102453.88;5143681;28;19973;-75
2023/05/02 07:13:33;;;;;;;;;;;;;;;15.30;100.00;102442.97;5131224;28;19914;-75
2023/05/02 07:16:04;;;;;;;;;;;;;;;15.74;100.00;102449.19;5133519;28;19918;-74
2023/05/02 07:18:35;;;;;;;;;;;;;;;15.84;100.00;102449.06;5134773;28;19914;-74
2023/05/02 07:21:05;;;;;;;;;;;;;;;15.17;100.00;102456.06;5135835;28;19914;-74
2023/05/02 07:23:36;;;;;;;;;;;;;;;14.67;100.00;102452.09;5124155;28;19925;-75
2023/05/02 07:26:06;;;;;;;;;;;;;;;14.38;100.00;102456.81;5135402;28;20412;-74
2023/05/02 07:28:37;;;;;;;;;;;;;;;14.34;100.00;102463.50;5142675;28;20354;-75
2023/05/02 07:31:07;;;;;;;;;;;;;;;15.20;100.00;102467.38;5142253;28;19977;-74
2023/05/02 07:33:37;;;;;;;;;;;;;;;16.15;100.00;102465.59;5124152;28;19914;-75
2023/05/02 07:36:08;;;;;;;;;;;;;;;18.00;100.00;102464.09;5123435;28;19962;-75
2023/05/02 07:38:38;;;;;;;;;;;;;;;18.25;100.00;102462.09;5122680;28;20013;-75
2023/05/02 07:41:09;;;;;;;;;;;;;;;18.75;100.00;102471.69;5124717;28;19921;-75
2023/05/02 07:43:39;;;;;;;;;;;;;;;18.50;100.00;102461.97;5124198;28;19923;-75
2023/05/02 07:46:09;;;;;;;;;;;;;;;17.75;100.00;102452.47;5123079;28;19919;-75
2023/05/02 07:48:41;;;;;;;;;;;;;;;17.50;100.00;102450.81;5133787;28;20553;-75
2023/05/02 07:51:12;;;;;;;;;;;;;;;17.95;100.00;102465.66;5127724;28;19914;-75
2023/05/02 07:53:42;;;;;;;;;;;;;;;18.61;100.00;102465.13;5130960;28;20001;-75
2023/05/02 07:56:12;;;;;;;;;;;;;;;18.97;100.00;102464.53;5141351;28;19914;-75
2023/05/02 07:58:43;;;;;;;;;;;;;;;19.26;100.00;102466.50;5142219;28;19914;-75
2023/05/02 08:01:13;;;;;;;;;;;;;;;;;;5134560;28;19915;-76
2023/05/02 08:03:43;;;;;;;;;;;;;;;19.49;100.00;102471.06;5137732;28;19918;-75
2023/05/02 08:06:14;;;;;;;;;;;;;;;18.42;100.00;102471.00;5142923;28;19914;-75
2023/05/02 08:08:44;;;;;;;;;;;;;;;18.17;100.00;102477.59;5142146;28;19914;-75
2023/05/02 08:11:15;;;;;;;;;;;;;;;18.02;100.00;102477.47;5142103;28;19914;-76
2023/05/02 08:13:45;;;;;;;;;;;;;;;18.14;100.00;102478.81;5142498;28;20005;-75
2023/05/02 08:16:15;;;;;;;;;;;;;;;17.62;100.00;102487.44;5142432;28;19915;-75
2023/05/02 08:18:46;;;;;;;;;;;;;;;17.74;100.00;102488.78;5135716;28;19915;-75
2023/05/02 08:21:16;;;;;;;;;;;;;;;17.09;100.00;102494.25;5134184;28;19920;-75
2023/05/02 08:23:47;;;;;;;;;;;;;;;16.70;100.00;102492.16;5129769;28;19949;-75
2023/05/02 08:26:17;;;;;;;;;;;;;;;16.39;100.00;102494.63;5141038;28;20001;-75
2023/05/02 08:28:48;;;;;;;;;;;;;;;16.49;100.00;102497.19;5121891;28;19973;-75
2023/05/02 08:31:18;;;;;;;;;;;;;;;16.98;100.00;102500.03;5122115;28;19961;-75
2023/05/02 08:33:49;;;;;;;;;;;;;;;18.14;100.00;102502.41;5122850;28;19921;-75
2023/05/02 08:36:19;;;;;;;;;;;;;;;18.62;100.00;102507.59;5120877;28;20626;-75
2023/05/02 08:38:49;;;;;;;;;;;;;;;18.64;100.00;102510.13;5132603;28;19964;-75
2023/05/02 08:41:21;;;;;;;;;;;;;;;19.12;100.00;102506.22;5141505;28;20382;-76
2023/05/02 08:43:52;;;;;;;;;;;;;;;19.40;100.00;102509.22;5130670;28;20388;-76
2023/05/02 08:46:23;;;;;;;;;;;;;;;19.76;100.00;102519.44;5121000;28;19925;-75
2023/05/02 08:48:57;;;;;;;;;;;;;;;18.78;100.00;102514.00;5122482;28;19914;-76
2023/05/02 08:51:29;;;;;;;;;;;;;;;18.47;100.00;102508.50;5122730;28;19958;-75
2023/05/02 08:54:01;;;;;;;;;;;;;;;18.57;100.00;102514.56;5121813;28;19934;-75
2023/05/02 08:56:31;;;;;;;;;;;;;;;18.25;100.00;102521.88;5121123;28;19918;-75
2023/05/02 08:59:02;;;;;;;;;;;;;;;18.32;100.00;102519.28;5122325;28;20356;-76
2023/05/02 09:01:34;;;;;;;;;;;;;;;18.40;100.00;102516.53;5132495;28;20339;-76
2023/05/02 09:04:05;;;;;;;;;;;;;;;18.61;100.00;102516.75;5124296;28;20383;-75
2023/05/02 09:06:35;;;;;;;;;;;;;;;19.57;100.00;102515.34;5132640;28;19918;-75
2023/05/02 09:09:07;;;;;;;;;;;;;;;20.26;100.00;102523.28;5142258;28;19960;-76
2023/05/02 09:11:37;;;;;;;;;;;;;;;20.30;100.00;102540.13;5139888;28;19922;-76
2023/05/02 09:14:13;;;;;;;;;;;;;;;20.22;100.00;102535.59;5129609;28;19914;-76
2023/05/02 09:16:43;;;;;;;;;;;;;;;19.31;100.00;102525.81;5140235;28;20005;-76
2023/05/02 09:19:22;;;;;;;;;;;;;;;19.41;100.00;102532.69;5142275;28;20013;-76
2023/05/02 09:21:59;;;;;;;;;;;;;;;20.07;94.47;102530.16;5136212;28;19915;-75
2023/05/02 09:24:32;;;;;;;;;;;;;;;19.63;100.00;102533.72;5120829;28;19973;-76
2023/05/02 09:27:03;;;;;;;;;;;;;;;20.07;98.85;102541.06;5121218;28;19915;-76
2023/05/02 09:29:36;;;;;;;;;;;;;;;19.77;100.00;102544.78;5136353;28;19921;-76
2023/05/02 09:32:07;;;;;;;;;;;;;;;19.71;100.00;102537.38;5145001;28;20330;-76
2023/05/02 09:34:38;;;;;;;;;;;;;;;20.32;86.64;102541.59;5145927;28;19918;-76
2023/05/02 09:37:10;;;;;;;;;;;;;;;19.54;100.00;102548.41;5144542;28;19914;-75
2023/05/02 09:39:40;;;;;;;;;;;;;;;19.17;100.00;102551.94;5145241;28;19921;-75
2023/05/02 09:42:11;;;;;;;;;;;;;;;19.64;100.00;102554.47;5145705;28;19914;-76
2023/05/02 09:44:45;;;;;;;;;;;;;;;20.46;97.26;102563.59;5126614;28;19918;-76
2023/05/02 09:47:26;;;;;;;;;;;;;;;20.40;100.00;102565.19;5124285;28;20029;-76
2023/05/02 09:49:56;;;;;;;;;;;;;;;20.18;100.00;102559.69;5132182;28;19949;-76
2023/05/02 09:52:27;;;;;;;;;;;;;;;20.29;100.00;102566.53;5133933;28;19945;-76
2023/05/02 09:54:57;;;;;;;;;;;;;;;18.63;100.00;102554.66;5145338;28;19929;-76
2023/05/02 09:57:39;;;;;;;;;;;;;;;18.86;100.00;102555.53;5144138;28;19914;-76
2023/05/02 10:00:10;;;;;;;;;;;;;;;19.24;100.00;102552.91;5144009;28;19968;-75
2023/05/02 10:02:41;;;;;;;;;;;;;;;20.02;100.00;102565.28;5145138;28;19914;-76
2023/05/02 10:05:12;;;;;;;;;;;;;;;20.09;100.00;102557.22;5143731;28;19925;-76
2023/05/02 10:07:43;;;;;;;;;;;;;;;19.93;100.00;102566.44;5124031;28;19914;-76
2023/05/02 10:10:15;;;;;;;;;;;;;;;19.81;100.00;102559.72;5140620;28;19923;-75
2023/05/02 10:12:47;;;;;;;;;;;;;;;19.64;100.00;102553.63;5143982;28;19934;-76
2023/05/02 10:15:20;;;;;;;;;;;;;;;18.95;100.00;102559.06;5144735;28;19918;-75
2023/05/02 10:17:50;;;;;;;;;;;;;;;18.58;100.00;102546.19;5143418;28;19980;-75
2023/05/02 10:20:22;;;;;;;;;;;;;;;18.02;100.00;102551.69;5129661;28;20379;-76
2023/05/02 10:22:52;;;;;;;;;;;;;;;17.90;100.00;102568.50;5132414;28;20628;-75
2023/05/02 10:25:23;;;;;;;;;;;;;;;18.26;100.00;102563.47;5144399;28;19964;-75
2023/05/02 10:27:55;;;;;;;;;;;;;;;18.50;100.00;102562.53;5143424;28;20387;-76
2023/05/02 10:30:25;;;;;;;;;;;;;;;19.03;100.00;102558.19;5140684;28;19929;-75
2023/05/02 10:32:58;;;;;;;;;;;;;;;19.10;100.00;102561.84;5126261;28;19914;-75
2023/05/02 10:35:29;;;;;;;;;;;;;;;18.30;100.00;102568.38;5133303;28;19918;-76
2023/05/02 10:38:00;;;;;;;;;;;;;;;18.48;100.00;102576.28;5120201;28;19914;-75
2023/05/02 10:40:31;;;;;;;;;;;;;;;18.43;100.00;102575.97;5135502;28;19914;-76
2023/05/02 10:43:03;;;;;;;;;;;;;;;18.01;100.00;102576.28;5123435;28;19923;-75
2023/05/02 10:45:34;;;;;;;;;;;;;;;17.80;100.00;102580.38;5122699;28;19924;-76
2023/05/02 10:48:24;;;;;;;;;;;;;;;17.34;100.00;102573.78;5119810;28;19977;-75
2023/05/02 10:50:56;;;;;;;;;;;;;;;17.04;100.00;102572.56;5123713;28;19914;-75
2023/05/02 10:53:47;;;;;;;;;;;;;;;17.12;100.00;102580.72;5131826;28;19922;-75
2023/05/02 10:56:21;;;;;;;;;;;;;;;16.98;100.00;102578.66;5125479;28;19925;-75
2023/05/02 10:58:52;;;;;;;;;;;;;;;17.99;100.00;102568.31;5121401;28;19918;-75
2023/05/02 11:01:25;;;;;;;;;;;;;;;18.84;100.00;102567.66;5124200;28;19914;-76
2023/05/02 11:03:57;;;;;;;;;;;;;;;18.01;93.26;102582.53;5124023;28;19918;-75
2023/05/02 11:06:28;;;;;;;;;;;;;;;17.70;100.00;102579.69;5122922;28;19921;-75
2023/05/02 11:09:09;;;;;;;;;;;;;;;18.24;100.00;102584.53;5123862;28;20005;-75
2023/05/02 11:11:57;;;;;;;;;;;;;;;17.85;95.42;102585.31;5122224;28;20506;-75
2023/05/02 11:14:38;;;;;;;;;;;;;;;17.23;100.00;102577.66;5134162;28;19917;-75
2023/05/02 11:17:09;;;;;;;;;;;;;;;17.34;100.00;102577.31;5136625;28;19914;-76
2023/05/02 11:19:55;;;;;;;;;;;;;;;17.49;100.00;102573.94;5125709;28;19973;-75
2023/05/02 11:22:45;;;;;;;;;;;;;;;17.80;100.00;102580.38;5134803;28;20378;-76
2023/05/02 11:25:29;;;;;;;;;;;;;;;18.30;100.00;102573.81;5123885;28;20562;-75
2023/05/02 11:27:59;;;;;;;;;;;;;;;18.45;100.00;102578.50;5122305;28;19915;-75
2023/05/02 11:30:42;;;;;;;;;;;;;;;18.36;100.00;102575.81;5123575;28;20502;-75
2023/05/02 11:33:15;;;;;;;;;;;;;;;18.13;100.00;102565.91;5123403;28;19914;-75
2023/05/02 11:35:47;;;;;;;;;;;;;;;18.51;100.00;102572.38;5123641;28;19915;-75
2023/05/02 11:38:19;;;;;;;;;;;;;;;18.67;93.49;102575.00;5123441;28;19926;-75
2023/05/02 11:40:50;;;;;;;;;;;;;;;18.24;100.00;102570.97;5126217;28;19918;-76
2023/05/02 11:43:25;;;;;;;;;;;;;;;17.61;100.00;102570.69;5142345;28;20012;-75
2023/05/02 11:45:56;;;;;;;;;;;;;;;17.51;95.17;102575.44;5140945;28;19923;-76
2023/05/02 11:48:26;;;;;;;;;;;;;;;17.33;100.00;102574.78;5154389;28;19922;-75
2023/05/02 11:50:57;;;;;;;;;;;;;;;17.56;99.97;102575.78;5138782;28;19914;-75
2023/05/02 11:53:28;;;;;;;;;;;;;;;17.71;100.00;102575.94;5133149;28;20339;-75
2023/05/02 11:56:00;;;;;;;;;;;;;;;17.69;99.45;102577.16;5140849;28;20012;-75
2023/05/02 11:58:32;;;;;;;;;;;;;;;17.53;100.00;102575.31;5141131;28;19949;-76
2023/05/02 12:01:20;;;;;;;;;;;;;;;17.39;100.00;102581.41;5140467;28;19918;-75
2023/05/02 12:04:00;;;;;;;;;;;;;;;17.48;100.00;102583.94;5141475;28;20062;-75
2023/05/02 12:06:31;;;;;;;;;;;;;;;17.67;100.00;102581.88;5140951;28;19921;-75
2023/05/02 12:09:19;;;;;;;;;;;;;;;18.14;100.00;102581.19;5139667;28;20008;-75
2023/05/02 12:11:51;;;;;;;;;;;;;;;18.45;96.85;102594.81;5139942;28;20021;-75
2023/05/02 12:14:40;;;;;;;;;;;;;;;18.55;96.12;102595.44;5131903;28;19953;-75
2023/05/02 12:17:10;;;;;;;;;;;;;;;18.57;92.05;102593.38;5135711;28;19921;-75
2023/05/02 12:19:41;;;;;;;;;;;;;;;18.52;93.28;102606.66;5137781;28;19914;-75
2023/05/02 12:22:13;;;;;;;;;;;;;;;18.02;90.87;102600.56;5134705;28;19918;-75
2023/05/02 12:24:43;;;;;;;;;;;;;;;17.79;100.00;102602.28;5122203;28;19919;-75
2023/05/02 12:27:14;;;;;;;;;;;;;;;17.57;100.00;102606.47;5120565;28;19914;-75
2023/05/02 12:29:45;;;;;;;;;;;;;;;17.57;100.00;102606.47;5121938;28;19915;-75
2023/05/02 12:32:26;;;;;;;;;;;;;;;17.22;100.00;102611.25;5122521;28;19914;-75
2023/05/02 12:34:57;;;;;;;;;;;;;;;17.14;100.00;102607.66;5121850;28;19922;-75
2023/05/02 12:37:28;;;;;;;;;;;;;;;17.38;100.00;102613.13;5120029;28;19915;-75
2023/05/02 12:39:58;;;;;;;;;;;;;;;17.48;100.00;102611.09;5129066;28;20291;-75
2023/05/02 12:42:31;;;;;;;;;;;;;;;17.55;100.00;102598.53;5128409;28;20391;-75
2023/05/02 12:45:01;;;;;;;;;;;;;;;17.57;100.00;102611.91;5121979;28;20425;-75
2023/05/02 12:47:43;;;;;;;;;;;;;;;17.95;95.41;102613.13;5120548;28;19942;-75
2023/05/02 12:50:13;;;;;;;;;;;;;;;17.95;100.00;102623.13;5122300;28;19918;-75
2023/05/02 12:52:47;;;;;;;;;;;;;;;18.19;100.00;102617.66;5137483;28;19977;-75
2023/05/02 12:55:18;;;;;;;;;;;;;;;18.79;92.37;102616.28;5128224;28;19918;-75
2023/05/02 12:57:49;;;;;;;;;;;;;;;18.18;93.16;102621.41;5121004;28;19918;-75